Time;durP1;ratioP1;P1;durP2;ratioP2;P2;SDS_P1;SDS_P2;PMS_P1;PMS_P2;Temp;Humidity;BMP_temperature;BMP_pressure;BME280_temperature;BME280_humidity;BME280_pressure;Samples;Min_cycle;Max_cycle;Signal;HPM_P1;HPM_P2
2022/05/01 00:00:48;;;;;;;8.27;4.38;;;;;;;;;;5055741;28;20027;-70
2022/05/01 00:03:30;;;;;;;6.35;4.20;;;;;;;;;;5055060;28;20024;-71
2022/05/01 00:06:07;;;;;;;6.70;4.00;;;;;;;;;;5051367;28;20044;-70
2022/05/01 00:08:35;;;;;;;6.47;3.80;;;;;;;;;;5050611;28;20448;-73
2022/05/01 00:11:01;;;;;;;6.15;3.90;;;;;;;;;;5052067;28;20413;-70
2022/05/01 00:13:27;;;;;;;5.28;3.60;;;;;;;;;;5052449;28;20055;-70
2022/05/01 00:15:53;;;;;;;4.47;3.00;;;;;;;;;;5053698;28;20021;-70
2022/05/01 00:18:19;;;;;;;4.47;3.50;;;;;;;;;;5052455;28;20061;-71
2022/05/01 00:20:46;;;;;;;4.18;3.08;;;;;;;;;;5054715;28;20388;-70
2022/05/01 00:23:12;;;;;;;5.53;3.10;;;;;;;;;;5053677;28;20025;-71
2022/05/01 00:25:42;;;;;;;5.13;2.95;;;;;;;;;;5049994;28;20048;-70
2022/05/01 00:28:12;;;;;;;4.65;3.20;;;;;;;;;;5055380;28;20041;-70
2022/05/01 00:30:38;;;;;;;6.35;3.33;;;;;;;;;;5055636;28;20041;-70
2022/05/01 00:38:33;;;;;;;7.85;3.28;;;;;;;;;;5057609;28;20059;-70
2022/05/01 00:40:59;;;;;;;3.97;2.80;;;;;;;;;;5058168;28;20044;-70
2022/05/01 00:43:25;;;;;;;4.05;2.90;;;;;;;;;;5057114;28;20024;-71
2022/05/01 00:45:50;;;;;;;4.13;2.80;;;;;;;;;;5059134;28;20109;-70
2022/05/01 00:48:16;;;;;;;5.90;2.78;;;;;;;;;;5056360;28;20464;-71
2022/05/01 00:50:43;;;;;;;4.55;2.88;;;;;;;;;;5055190;28;20431;-70
2022/05/01 00:53:09;;;;;;;4.70;3.05;;;;;;;;;;5055550;28;20456;-70
2022/05/01 00:55:38;;;;;;;5.57;3.03;;;;;;;;;;5055978;28;20412;-70
2022/05/01 00:58:06;;;;;;;4.75;2.92;;;;;;;;;;5052837;28;20031;-70
2022/05/01 01:00:33;;;;;;;3.72;2.70;;;;;;;;;;5054902;28;20104;-70
2022/05/01 01:02:58;;;;;;;4.47;2.75;;;;;;;;;;5057397;28;20029;-70
2022/05/01 01:05:23;;;;;;;5.38;2.92;;;;;;;;;;5056545;28;20025;-70
2022/05/01 01:07:49;;;;;;;4.40;2.72;;;;;;;;;;5056974;28;20412;-70
2022/05/01 01:10:15;;;;;;;5.63;2.88;;;;;;;;;;5055317;28;20063;-71
2022/05/01 01:12:55;;;;;;;4.30;2.75;;;;;;;;;;5053399;28;20123;-70
2022/05/01 01:15:24;;;;;;;5.13;2.72;;;;;;;;;;5060551;28;20021;-70
2022/05/01 01:17:54;;;;;;;5.20;2.85;;;;;;;;;;5056354;28;20052;-71
2022/05/01 01:20:29;;;;;;;4.65;3.00;;;;;;;;;;5052472;28;20067;-71
2022/05/01 01:22:57;;;;;;;4.88;3.13;;;;;;;;;;5058784;28;20054;-71
2022/05/01 01:25:31;;;;;;;7.68;2.90;;;;;;;;;;5056713;28;20039;-70
2022/05/01 01:28:05;;;;;;;4.55;2.67;;;;;;;;;;5053277;28;20033;-70
2022/05/01 01:33:21;;;;;;;4.07;2.60;;;;;;;;;;5056882;28;20027;-70
2022/05/01 01:35:51;;;;;;;4.28;2.53;;;;;;;;;;5053346;28;20041;-70
2022/05/01 01:38:17;;;;;;;5.47;2.83;;;;;;;;;;5053849;28;20320;-70
2022/05/01 01:40:47;;;;;;;4.13;2.55;;;;;;;;;;5053925;28;20043;-71
2022/05/01 01:43:17;;;;;;;4.70;2.90;;;;;;;;;;5057588;28;20048;-71
2022/05/01 01:45:42;;;;;;;5.38;2.60;;;;;;;;;;5056280;28;20037;-70
2022/05/01 01:48:13;;;;;;;5.45;3.10;;;;;;;;;;5054452;28;20029;-70
2022/05/01 01:50:39;;;;;;;4.97;3.00;;;;;;;;;;5053933;28;20037;-70
2022/05/01 01:53:05;;;;;;;6.78;3.30;;;;;;;;;;5059264;28;20255;-70
2022/05/01 01:55:33;;;;;;;5.07;3.20;;;;;;;;;;5056030;28;20504;-70
2022/05/01 01:57:59;;;;;;;6.72;3.30;;;;;;;;;;5053623;28;20327;-70
2022/05/01 02:00:25;;;;;;;4.55;3.00;;;;;;;;;;5055409;28;20080;-70
2022/05/01 02:03:00;;;;;;;5.53;3.00;;;;;;;;;;5059868;28;20351;-71
2022/05/01 02:05:27;;;;;;;4.22;3.03;;;;;;;;;;5057987;28;20059;-70
2022/05/01 02:07:53;;;;;;;4.70;3.25;;;;;;;;;;5053622;28;20104;-70
2022/05/01 02:10:19;;;;;;;4.70;3.20;;;;;;;;;;5054457;28;20016;-70
2022/05/01 02:12:45;;;;;;;5.25;2.90;;;;;;;;;;5055435;28;20116;-70
2022/05/01 02:15:10;;;;;;;6.97;2.80;;;;;;;;;;5056040;28;20492;-70
2022/05/01 02:17:38;;;;;;;5.80;3.00;;;;;;;;;;5055018;28;20194;-70
2022/05/01 02:20:04;;;;;;;4.97;2.88;;;;;;;;;;5056740;28;20096;-70
2022/05/01 02:22:29;;;;;;;6.05;3.20;;;;;;;;;;5053103;28;20457;-70
2022/05/01 02:24:55;;;;;;;4.68;2.90;;;;;;;;;;5053529;28;20025;-71
2022/05/01 02:27:20;;;;;;;6.72;2.92;;;;;;;;;;5052266;28;20467;-71
2022/05/01 02:29:46;;;;;;;4.13;2.90;;;;;;;;;;5051780;28;20465;-71
2022/05/01 02:32:12;;;;;;;4.78;3.05;;;;;;;;;;5052502;28;20031;-71
2022/05/01 02:34:37;;;;;;;4.93;3.30;;;;;;;;;;5052234;28;20017;-70
2022/05/01 02:37:03;;;;;;;4.88;3.10;;;;;;;;;;5053923;28;20269;-70
2022/05/01 02:39:28;;;;;;;3.70;2.80;;;;;;;;;;5052414;28;20211;-71
2022/05/01 02:41:54;;;;;;;5.30;3.00;;;;;;;;;;5056278;28;20052;-69
2022/05/01 02:44:20;;;;;;;5.22;3.15;;;;;;;;;;5052793;28;20040;-71
2022/05/01 02:46:46;;;;;;;3.85;2.80;;;;;;;;;;5057840;28;20013;-70
2022/05/01 02:49:11;;;;;;;4.93;3.20;;;;;;;;;;5053894;28;20033;-70
2022/05/01 02:51:37;;;;;;;4.63;3.00;;;;;;;;;;5052065;28;20021;-70
2022/05/01 02:54:04;;;;;;;4.25;2.80;;;;;;;;;;5050836;28;20021;-70
2022/05/01 02:56:30;;;;;;;3.60;2.70;;;;;;;;;;5052431;28;20078;-71
2022/05/01 02:59:02;;;;;;;6.63;2.88;;;;;;;;;;5053845;28;20599;-69
2022/05/01 03:01:29;;;;;;;5.65;3.25;;;;;;;;;;5051701;28;20400;-70
2022/05/01 03:03:55;;;;;;;5.22;2.88;;;;;;;;;;5054515;28;20032;-70
2022/05/01 03:06:20;;;;;;;3.85;3.10;;;;;;;;;;5053342;28;20029;-70
2022/05/01 03:08:46;;;;;;;5.30;2.90;;;;;;;;;;5053035;28;20096;-70
2022/05/01 03:11:11;;;;;;;5.20;2.88;;;;;;;;;;5056280;28;20036;-70
2022/05/01 03:13:37;;;;;;;3.70;2.80;;;;;;;;;;5051207;28;20025;-70
2022/05/01 03:16:03;;;;;;;4.65;2.90;;;;;;;;;;5057424;28;20037;-70
2022/05/01 03:23:56;;;;;;;4.15;2.70;;;;;;;;;;5052135;28;20032;-71
2022/05/01 03:26:21;;;;;;;4.82;3.05;;;;;;;;;;5052164;28;20028;-71
2022/05/01 03:28:48;;;;;;;5.78;2.80;;;;;;;;;;5053336;28;20021;-70
2022/05/01 03:31:17;;;;;;;5.05;2.88;;;;;;;;;;5052559;28;20036;-70
2022/05/01 03:33:44;;;;;;;4.60;2.92;;;;;;;;;;5052881;28;20029;-71
2022/05/01 03:36:10;;;;;;;4.80;2.83;;;;;;;;;;5050535;28;20124;-70
2022/05/01 03:38:37;;;;;;;5.50;3.10;;;;;;;;;;5051810;28;20116;-70
2022/05/01 03:41:08;;;;;;;4.25;2.67;;;;;;;;;;5053328;28;20045;-70
2022/05/01 03:43:35;;;;;;;3.85;2.80;;;;;;;;;;5051297;28;20021;-70
2022/05/01 03:46:02;;;;;;;5.65;2.80;;;;;;;;;;5056241;28;20112;-70
2022/05/01 03:48:28;;;;;;;4.32;2.88;;;;;;;;;;5053063;28;20021;-69
2022/05/01 03:50:54;;;;;;;4.57;2.70;;;;;;;;;;5053346;28;20028;-70
2022/05/01 03:53:20;;;;;;;4.95;2.53;;;;;;;;;;5052735;28;20536;-71
2022/05/01 03:55:46;;;;;;;4.72;2.72;;;;;;;;;;5054141;28;20148;-70
2022/05/01 03:58:13;;;;;;;3.58;2.80;;;;;;;;;;5051072;28;20075;-71
2022/05/01 04:00:38;;;;;;;3.65;2.58;;;;;;;;;;5050558;28;20028;-70
2022/05/01 04:03:04;;;;;;;3.78;2.72;;;;;;;;;;5056288;28;20108;-70
2022/05/01 04:05:32;;;;;;;4.78;2.55;;;;;;;;;;5050284;28;20025;-71
2022/05/01 04:07:58;;;;;;;4.55;2.70;;;;;;;;;;5053791;28;20102;-70
2022/05/01 04:10:24;;;;;;;5.80;2.42;;;;;;;;;;5056650;28;20033;-70
2022/05/01 04:12:49;;;;;;;3.97;2.90;;;;;;;;;;5052503;28;20442;-70
2022/05/01 04:15:15;;;;;;;4.90;2.58;;;;;;;;;;5050401;28;20465;-70
2022/05/01 04:17:41;;;;;;;4.65;2.65;;;;;;;;;;5053314;28;20501;-70
2022/05/01 04:20:16;;;;;;;4.00;2.72;;;;;;;;;;5051869;28;20224;-70
2022/05/01 04:22:43;;;;;;;5.00;2.85;;;;;;;;;;5050880;28;20025;-71
2022/05/01 04:25:23;;;;;;;4.82;2.58;;;;;;;;;;5031976;28;20040;-70
2022/05/01 04:27:56;;;;;;;4.87;2.57;;;;;;;;;;5049496;28;20499;-70
2022/05/01 04:30:22;;;;;;;3.70;2.60;;;;;;;;;;5052178;28;20566;-70
2022/05/01 04:32:53;;;;;;;4.15;2.50;;;;;;;;;;5051300;28;20032;-70
2022/05/01 04:35:30;;;;;;;3.03;2.45;;;;;;;;;;5054156;28;20424;-71
2022/05/01 04:38:04;;;;;;;3.72;2.67;;;;;;;;;;5054704;28;20330;-71
2022/05/01 04:40:35;;;;;;;5.10;2.80;;;;;;;;;;5051957;28;20024;-70
2022/05/01 04:43:05;;;;;;;6.40;2.80;;;;;;;;;;5053950;28;20082;-70
2022/05/01 04:45:31;;;;;;;4.33;2.60;;;;;;;;;;5050450;28;20052;-69
2022/05/01 04:47:58;;;;;;;5.50;3.00;;;;;;;;;;5051613;28;20295;-69
2022/05/01 04:50:25;;;;;;;4.40;3.10;;;;;;;;;;5050569;28;20423;-70
2022/05/01 04:52:50;;;;;;;6.93;2.90;;;;;;;;;;5052529;28;20092;-70
2022/05/01 04:55:16;;;;;;;7.38;2.92;;;;;;;;;;5053849;28;20052;-70
2022/05/01 04:57:41;;;;;;;4.40;2.88;;;;;;;;;;5052969;28;20033;-70
2022/05/01 05:00:07;;;;;;;4.93;3.00;;;;;;;;;;5050967;28;20083;-69
2022/05/01 05:02:42;;;;;;;6.60;3.28;;;;;;;;;;5049726;28;20262;-70
2022/05/01 05:05:10;;;;;;;8.40;3.28;;;;;;;;;;5053177;28;20041;-70
2022/05/01 05:07:36;;;;;;;4.90;2.95;;;;;;;;;;5050115;28;20198;-70
2022/05/01 05:10:04;;;;;;;5.90;3.17;;;;;;;;;;5051260;28;20021;-71
2022/05/01 05:12:29;;;;;;;4.85;3.20;;;;;;;;;;5049460;28;20029;-70
2022/05/01 05:14:58;;;;;;;4.97;2.90;;;;;;;;;;5052658;28;20032;-70
2022/05/01 05:17:25;;;;;;;5.53;3.20;;;;;;;;;;5059855;28;20033;-69
2022/05/01 05:19:50;;;;;;;6.53;2.97;;;;;;;;;;5057197;28;20263;-70
2022/05/01 05:22:16;;;;;;;8.57;3.35;;;;;;;;;;5054860;28;20477;-70
2022/05/01 05:24:42;;;;;;;5.47;3.10;;;;;;;;;;5038458;28;20039;-70
2022/05/01 05:27:07;;;;;;;4.20;2.70;;;;;;;;;;5058270;28;20301;-69
2022/05/01 05:29:33;;;;;;;4.45;2.70;;;;;;;;;;5054644;28;20075;-71
2022/05/01 05:31:59;;;;;;;6.25;2.80;;;;;;;;;;5053688;28;20392;-70
2022/05/01 05:34:25;;;;;;;5.90;2.90;;;;;;;;;;5054913;28;20029;-69
2022/05/01 05:36:51;;;;;;;5.85;2.67;;;;;;;;;;5054111;28;20036;-71
2022/05/01 05:39:16;;;;;;;4.97;2.70;;;;;;;;;;5054700;28;20025;-71
2022/05/01 05:41:42;;;;;;;4.15;2.70;;;;;;;;;;5055863;28;20037;-70
2022/05/01 05:44:07;;;;;;;4.70;2.92;;;;;;;;;;5055311;28;20108;-70
2022/05/01 05:46:33;;;;;;;4.68;2.45;;;;;;;;;;5056431;28;20027;-71
2022/05/01 05:48:59;;;;;;;4.10;2.60;;;;;;;;;;5056031;28;20084;-70
2022/05/01 05:51:24;;;;;;;4.82;2.40;;;;;;;;;;5057067;28;20029;-70
2022/05/01 05:53:50;;;;;;;5.38;2.58;;;;;;;;;;5054372;28;20025;-70
2022/05/01 05:56:17;;;;;;;4.45;2.40;;;;;;;;;;5055948;28;20090;-70
2022/05/01 05:58:42;;;;;;;4.03;2.50;;;;;;;;;;5057157;28;20029;-70
2022/05/01 06:01:09;;;;;;;5.50;2.50;;;;;;;;;;5055951;28;20029;-70
2022/05/01 06:03:36;;;;;;;5.32;2.40;;;;;;;;;;5055788;28;20036;-71
2022/05/01 06:06:01;;;;;;;4.47;2.58;;;;;;;;;;5055186;28;20112;-69
2022/05/01 06:08:27;;;;;;;5.97;2.60;;;;;;;;;;5054114;28;20068;-70
2022/05/01 06:10:52;;;;;;;5.05;2.50;;;;;;;;;;5055487;28;20025;-70
2022/05/01 06:13:18;;;;;;;4.95;2.50;;;;;;;;;;5055136;28;20025;-70
2022/05/01 06:15:43;;;;;;;5.55;2.47;;;;;;;;;;5053155;28;20032;-70
2022/05/01 06:18:10;;;;;;;4.35;2.40;;;;;;;;;;5058746;28;20128;-70
2022/05/01 06:20:36;;;;;;;5.43;2.70;;;;;;;;;;5052491;28;20110;-70
2022/05/01 06:23:02;;;;;;;5.90;2.55;;;;;;;;;;5053102;28;20040;-70
2022/05/01 06:25:28;;;;;;;5.25;2.67;;;;;;;;;;5057041;28;20036;-70
2022/05/01 06:27:53;;;;;;;4.72;2.53;;;;;;;;;;5059247;28;20377;-70
2022/05/01 06:30:19;;;;;;;5.65;2.75;;;;;;;;;;5053900;28;20060;-70
2022/05/01 06:32:45;;;;;;;7.35;3.42;;;;;;;;;;5055386;28;20055;-69
2022/05/01 06:35:11;;;;;;;6.07;3.08;;;;;;;;;;5053533;28;20031;-69
2022/05/01 06:37:38;;;;;;;8.88;3.42;;;;;;;;;;5057671;28;20037;-70
2022/05/01 06:40:05;;;;;;;5.63;2.80;;;;;;;;;;5056157;28;20025;-70
2022/05/01 06:42:31;;;;;;;4.45;2.75;;;;;;;;;;5053160;28;20132;-69
2022/05/01 06:44:57;;;;;;;4.88;2.60;;;;;;;;;;5053567;28;20048;-70
2022/05/01 06:47:22;;;;;;;4.60;2.92;;;;;;;;;;5056225;28;20028;-71
2022/05/01 06:49:48;;;;;;;4.50;2.70;;;;;;;;;;5058719;28;20484;-71
2022/05/01 06:52:17;;;;;;;7.32;2.42;;;;;;;;;;5056104;28;20025;-70
2022/05/01 06:54:43;;;;;;;5.40;2.55;;;;;;;;;;5053878;28;20476;-69
2022/05/01 06:57:08;;;;;;;4.65;2.70;;;;;;;;;;5055284;28;20029;-70
2022/05/01 06:59:33;;;;;;;4.95;2.40;;;;;;;;;;5053573;28;20024;-69
2022/05/01 07:01:59;;;;;;;3.92;2.25;;;;;;;;;;5056510;28;20039;-70
2022/05/01 07:04:24;;;;;;;4.18;2.35;;;;;;;;;;5054191;28;20107;-70
2022/05/01 07:06:50;;;;;;;3.17;2.20;;;;;;;;;;5051678;28;20072;-70
2022/05/01 07:09:15;;;;;;;3.78;2.25;;;;;;;;;;5050916;28;20060;-71
2022/05/01 07:11:40;;;;;;;5.20;2.03;;;;;;;;;;5052702;28;20496;-69
2022/05/01 07:14:06;;;;;;;3.33;1.80;;;;;;;;;;5054220;28;20082;-70
2022/05/01 07:16:31;;;;;;;3.00;1.70;;;;;;;;;;5054783;28;20033;-68
2022/05/01 07:18:57;;;;;;;2.72;1.73;;;;;;;;;;5055292;28;20036;-71
2022/05/01 07:21:22;;;;;;;3.80;2.00;;;;;;;;;;5061178;28;20033;-72
2022/05/01 07:23:48;;;;;;;2.60;1.50;;;;;;;;;;5051970;28;20064;-71
2022/05/01 07:26:13;;;;;;;3.28;2.00;;;;;;;;;;5049761;28;20082;-71
2022/05/01 07:28:39;;;;;;;2.25;1.70;;;;;;;;;;5049912;28;20056;-71
2022/05/01 07:31:05;;;;;;;4.57;1.90;;;;;;;;;;5049880;28;20029;-70
2022/05/01 07:33:31;;;;;;;3.90;2.30;;;;;;;;;;5049984;28;20028;-70
2022/05/01 07:35:57;;;;;;;3.03;1.92;;;;;;;;;;5049014;28;20033;-71
2022/05/01 07:38:23;;;;;;;3.25;2.10;;;;;;;;;;5049911;28;20037;-71
2022/05/01 07:40:49;;;;;;;5.47;2.20;;;;;;;;;;5049690;28;20078;-71
2022/05/01 07:43:15;;;;;;;8.10;2.17;;;;;;;;;;5049732;28;20110;-71
2022/05/01 07:45:40;;;;;;;5.60;2.10;;;;;;;;;;5049898;28;20382;-71
2022/05/01 07:48:06;;;;;;;3.40;2.20;;;;;;;;;;5050061;28;20033;-71
2022/05/01 07:50:31;;;;;;;3.72;2.30;;;;;;;;;;5049801;28;20361;-71
2022/05/01 07:52:57;;;;;;;4.13;2.20;;;;;;;;;;5049351;28;20068;-70
2022/05/01 07:55:22;;;;;;;6.10;2.17;;;;;;;;;;5049877;28;20090;-72
2022/05/01 07:57:48;;;;;;;3.42;2.20;;;;;;;;;;5049609;28;20508;-71
2022/05/01 08:00:13;;;;;;;4.00;2.05;;;;;;;;;;5049824;28;20029;-70
2022/05/01 08:05:24;;;;;;;5.60;2.47;;;;;;;;;;5045722;28;20108;-72
2022/05/01 08:07:51;;;;;;;3.15;2.22;;;;;;;;;;5036688;28;20056;-67
2022/05/01 08:10:17;;;;;;;3.42;2.22;;;;;;;;;;5038099;28;20447;-69
2022/05/01 08:12:43;;;;;;;4.15;2.08;;;;;;;;;;5047312;28;20457;-70
2022/05/01 08:15:09;;;;;;;3.88;2.40;;;;;;;;;;5049305;28;20100;-69
2022/05/01 08:17:34;;;;;;;3.78;2.25;;;;;;;;;;5049148;28;20025;-71
2022/05/01 08:22:44;;;;;;;3.95;1.92;;;;;;;;;;5042383;28;20428;-72
2022/05/01 08:25:09;;;;;;;4.53;2.05;;;;;;;;;;5041292;28;20528;-73
2022/05/01 08:27:35;;;;;;;6.10;1.90;;;;;;;;;;5047648;28;20512;-72
2022/05/01 08:30:00;;;;;;;4.82;1.90;;;;;;;;;;5048841;28;20021;-69
2022/05/01 08:32:26;;;;;;;3.80;1.90;;;;;;;;;;5048805;28;20120;-69
2022/05/01 08:34:52;;;;;;;4.57;2.03;;;;;;;;;;5048548;28;20029;-69
2022/05/01 08:37:21;;;;;;;2.95;1.90;;;;;;;;;;5048907;28;20025;-69
2022/05/01 08:39:46;;;;;;;3.67;1.80;;;;;;;;;;5049195;28;20033;-71
2022/05/01 08:42:12;;;;;;;2.20;1.67;;;;;;;;;;5048850;28;20128;-70
2022/05/01 08:44:37;;;;;;;3.35;1.75;;;;;;;;;;5048910;28;20416;-68
2022/05/01 08:47:34;;;;;;;3.78;2.08;;;;;;;;;;5049301;28;20068;-70
2022/05/01 08:50:01;;;;;;;4.03;2.00;;;;;;;;;;5053190;28;20404;-69
2022/05/01 08:52:29;;;;;;;4.25;2.00;;;;;;;;;;5052858;28;20032;-68
2022/05/01 08:54:57;;;;;;;3.10;1.90;;;;;;;;;;5053272;28;20103;-67
2022/05/01 08:57:23;;;;;;;3.50;1.90;;;;;;;;;;5052709;28;20017;-67
2022/05/01 08:59:53;;;;;;;5.45;1.80;;;;;;;;;;5052731;28;20031;-68
2022/05/01 09:02:19;;;;;;;2.65;1.85;;;;;;;;;;5034501;28;20083;-69
2022/05/01 09:04:45;;;;;;;5.90;1.73;;;;;;;;;;5052819;28;20029;-66
2022/05/01 09:07:11;;;;;;;4.60;1.80;;;;;;;;;;5052714;28;20496;-66
2022/05/01 09:09:36;;;;;;;4.57;1.90;;;;;;;;;;5052867;28;20068;-66
2022/05/01 09:14:46;;;;;;;4.03;1.70;;;;;;;;;;5052853;28;20035;-68
2022/05/01 09:17:23;;;;;;;5.32;1.80;;;;;;;;;;5052487;28;20380;-68
2022/05/01 09:19:55;;;;;;;4.15;2.15;;;;;;;;;;5052408;28;20025;-67
2022/05/01 09:22:22;;;;;;;6.38;2.10;;;;;;;;;;5052478;28;20455;-67
2022/05/01 09:24:52;;;;;;;4.43;1.90;;;;;;;;;;5052426;28;20158;-68
2022/05/01 09:27:34;;;;;;;3.58;1.98;;;;;;;;;;5052134;28;20079;-67
2022/05/01 09:30:12;;;;;;;4.35;2.10;;;;;;;;;;5052489;28;20029;-69
2022/05/01 09:32:39;;;;;;;4.50;2.00;;;;;;;;;;5052070;28;20017;-67
2022/05/01 09:35:11;;;;;;;2.67;1.83;;;;;;;;;;5052292;28;20023;-69
2022/05/01 09:37:37;;;;;;;3.00;1.90;;;;;;;;;;5051920;28;20029;-69
2022/05/01 09:40:03;;;;;;;2.83;1.83;;;;;;;;;;5052293;28;20036;-69
2022/05/01 09:42:34;;;;;;;4.15;2.10;;;;;;;;;;5051829;28;20471;-71
2022/05/01 09:45:14;;;;;;;5.15;1.92;;;;;;;;;;5052110;28;20029;-70
2022/05/01 09:47:43;;;;;;;5.10;1.98;;;;;;;;;;5051996;28;20033;-72
2022/05/01 09:50:10;;;;;;;3.92;2.03;;;;;;;;;;5051989;28;20037;-70
2022/05/01 09:53:01;;;;;;;3.50;1.65;;;;;;;;;;5051648;28;20151;-71
2022/05/01 09:55:28;;;;;;;3.60;1.80;;;;;;;;;;5051823;28;20104;-69
2022/05/01 09:58:04;;;;;;;3.65;1.80;;;;;;;;;;5051742;28;20366;-72
2022/05/01 10:00:46;;;;;;;3.75;1.83;;;;;;;;;;5051549;28;20529;-70
2022/05/01 10:03:29;;;;;;;3.40;1.70;;;;;;;;;;5051456;28;20029;-70
2022/05/01 10:05:56;;;;;;;3.40;2.00;;;;;;;;;;5051790;28;20025;-69
2022/05/01 10:08:22;;;;;;;2.85;1.75;;;;;;;;;;5051200;28;20456;-69
2022/05/01 10:10:54;;;;;;;2.95;1.70;;;;;;;;;;5051360;28;20049;-70
2022/05/01 10:13:26;;;;;;;5.32;1.90;;;;;;;;;;5050980;28;20029;-70
2022/05/01 10:15:52;;;;;;;2.83;1.85;;;;;;;;;;5051605;28;20017;-70
2022/05/01 10:18:19;;;;;;;3.15;1.85;;;;;;;;;;5051302;28;20040;-68
2022/05/01 10:20:45;;;;;;;6.32;2.10;;;;;;;;;;5051480;28;20052;-66
2022/05/01 10:23:12;;;;;;;3.22;2.17;;;;;;;;;;5051086;28;20054;-67
2022/05/01 10:25:44;;;;;;;7.13;2.60;;;;;;;;;;5051304;28;20049;-68
2022/05/01 10:28:41;;;;;;;6.20;2.08;;;;;;;;;;5050885;28;20033;-68
2022/05/01 10:34:45;;;;;;;4.75;2.00;;;;;;;;;;5050881;28;20087;-68
2022/05/01 10:37:41;;;;;;;5.63;2.10;;;;;;;;;;5051260;28;20108;-68
2022/05/01 10:40:07;;;;;;;6.18;3.70;;;;;;;;;;5051108;28;20480;-68
2022/05/01 10:42:42;;;;;;;3.83;2.17;;;;;;;;;;5050872;28;20051;-68
2022/05/01 10:45:23;;;;;;;5.40;2.40;;;;;;;;;;5050796;28;20032;-67
2022/05/01 10:47:50;;;;;;;;;;;;;;;;;;5051014;28;20087;-67
2022/05/01 10:50:24;;;;;;;5.57;2.63;;;;;;;;;;5051134;28;20413;-68
2022/05/01 10:53:14;;;;;;;5.85;2.90;;;;;;;;;;5051086;28;20029;-68
2022/05/01 10:55:48;;;;;;;7.30;2.63;;;;;;;;;;5050958;28;20040;-69
2022/05/01 10:58:32;;;;;;;8.05;2.92;;;;;;;;;;5050409;28;20040;-69
2022/05/01 11:00:57;;;;;;;5.18;2.50;;;;;;;;;;5050562;28;20025;-70
2022/05/01 11:03:27;;;;;;;6.43;2.50;;;;;;;;;;5050392;28;20040;-69
2022/05/01 11:06:13;;;;;;;5.45;2.55;;;;;;;;;;5052174;28;20056;-70
2022/05/01 11:08:40;;;;;;;4.60;2.50;;;;;;;;;;5050107;28;20094;-70
2022/05/01 11:11:10;;;;;;;5.53;2.80;;;;;;;;;;5049650;28;20028;-69
2022/05/01 11:13:38;;;;;;;5.93;2.60;;;;;;;;;;5050229;28;20060;-69
2022/05/01 11:16:04;;;;;;;3.67;2.38;;;;;;;;;;5050388;28;20064;-69
2022/05/01 11:18:42;;;;;;;6.65;3.35;;;;;;;;;;5049961;28;20025;-69
2022/05/01 11:21:29;;;;;;;5.10;2.75;;;;;;;;;;5050313;28;20080;-69
2022/05/01 11:24:05;;;;;;;4.70;3.00;;;;;;;;;;5049900;28;20028;-69
2022/05/01 11:26:32;;;;;;;3.60;2.50;;;;;;;;;;5050110;28;20057;-69
2022/05/01 11:29:13;;;;;;;4.72;2.70;;;;;;;;;;5050220;28;20040;-69
2022/05/01 11:31:39;;;;;;;5.85;2.53;;;;;;;;;;5050357;28;20227;-70
2022/05/01 11:34:24;;;;;;;5.40;2.53;;;;;;;;;;5049720;28;20024;-69
2022/05/01 11:36:54;;;;;;;4.47;2.40;;;;;;;;;;5042481;28;20033;-70
2022/05/01 11:39:42;;;;;;;4.03;1.90;;;;;;;;;;5049835;28;20024;-69
2022/05/01 11:42:46;;;;;;;7.65;2.40;;;;;;;;;;5049843;28;20041;-69
2022/05/01 11:45:12;;;;;;;4.10;2.10;;;;;;;;;;5049590;28;20025;-69
2022/05/01 11:47:38;;;;;;;6.20;2.33;;;;;;;;;;5050013;28;20029;-69
2022/05/01 11:50:05;;;;;;;5.65;2.30;;;;;;;;;;5049687;28;20025;-70
2022/05/01 11:52:36;;;;;;;3.33;1.90;;;;;;;;;;5049912;28;20025;-69
2022/05/01 11:55:08;;;;;;;4.53;2.25;;;;;;;;;;5049590;28;20037;-70
2022/05/01 12:03:05;;;;;;;3.92;2.10;;;;;;;;;;5050072;28;20029;-70
2022/05/01 12:05:45;;;;;;;5.22;2.22;;;;;;;;;;5049466;28;20021;-71
2022/05/01 12:08:14;;;;;;;7.88;2.30;;;;;;;;;;5056598;28;20489;-69
2022/05/01 12:10:41;;;;;;;3.67;2.20;;;;;;;;;;5049365;28;20595;-69
2022/05/01 12:13:24;;;;;;;4.20;2.25;;;;;;;;;;5049879;28;20035;-70
2022/05/01 12:15:52;;;;;;;4.60;2.25;;;;;;;;;;5049117;28;20370;-70
2022/05/01 12:18:19;;;;;;;4.95;2.10;;;;;;;;;;5049457;28;20033;-71
2022/05/01 12:20:45;;;;;;;4.50;2.40;;;;;;;;;;5049516;28;20021;-69
2022/05/01 12:23:21;;;;;;;3.88;2.10;;;;;;;;;;5053609;28;20033;-69
2022/05/01 12:25:52;;;;;;;6.43;2.40;;;;;;;;;;5053447;28;20029;-69
2022/05/01 12:28:19;;;;;;;4.55;2.50;;;;;;;;;;5053538;28;20467;-69
2022/05/01 12:30:49;;;;;;;3.75;2.20;;;;;;;;;;5053410;28;20505;-69
2022/05/01 12:33:19;;;;;;;7.13;2.42;;;;;;;;;;5053586;28;20028;-70
2022/05/01 12:36:01;;;;;;;5.43;2.47;;;;;;;;;;5053112;28;20036;-69
2022/05/01 12:38:30;;;;;;;4.30;2.20;;;;;;;;;;5053822;28;21266;-70
2022/05/01 12:43:58;;;;;;;5.57;2.33;;;;;;;;;;5053207;28;20043;-69
2022/05/01 12:46:29;;;;;;;6.45;2.60;;;;;;;;;;5053109;28;20028;-69
2022/05/01 12:48:56;;;;;;;;;;;;;;;;;;5053515;28;20477;-69
2022/05/01 12:51:23;;;;;;;5.28;2.30;;;;;;;;;;5053081;28;19916;-69
2022/05/01 12:53:49;;;;;;;3.78;2.40;;;;;;;;;;5053033;28;20112;-69
2022/05/01 12:56:22;;;;;;;3.45;2.38;;;;;;;;;;5053055;28;20108;-70
2022/05/01 12:58:49;;;;;;;4.30;2.38;;;;;;;;;;5052985;28;20040;-69
2022/05/01 13:01:23;;;;;;;4.55;2.50;;;;;;;;;;5052749;28;20028;-69
2022/05/01 13:03:49;;;;;;;4.43;2.50;;;;;;;;;;5052829;28;20110;-69
2022/05/01 13:06:17;;;;;;;5.05;2.38;;;;;;;;;;5052677;28;20048;-69
2022/05/01 13:09:06;;;;;;;6.20;2.47;;;;;;;;;;5053007;28;20056;-69
2022/05/01 13:11:33;;;;;;;4.05;2.55;;;;;;;;;;5052799;28;20029;-68
2022/05/01 13:14:05;;;;;;;6.97;2.53;;;;;;;;;;5052857;28;20021;-69
2022/05/01 13:16:31;;;;;;;5.55;3.00;;;;;;;;;;5052441;28;20025;-69
2022/05/01 13:19:00;;;;;;;4.65;2.90;;;;;;;;;;5053019;28;20036;-69
2022/05/01 13:21:31;;;;;;;8.07;2.70;;;;;;;;;;5052483;28;20021;-68
2022/05/01 13:24:03;;;;;;;5.07;2.50;;;;;;;;;;5052568;28;20021;-70
2022/05/01 13:26:29;;;;;;;4.55;2.38;;;;;;;;;;5052438;28;20040;-69
2022/05/01 13:28:55;;;;;;;6.35;3.10;;;;;;;;;;5052497;28;20017;-70
2022/05/01 13:31:21;;;;;;;3.95;2.58;;;;;;;;;;5052738;28;20078;-69
2022/05/01 13:33:47;;;;;;;5.35;2.70;;;;;;;;;;5051570;28;20029;-69
2022/05/01 13:36:13;;;;;;;5.32;3.15;;;;;;;;;;5051888;28;20033;-69
2022/05/01 13:38:38;;;;;;;5.38;3.42;;;;;;;;;;5052489;28;20464;-69
2022/05/01 13:46:34;;;;;;;7.63;3.70;;;;;;;;;;5052270;28;20032;-69
2022/05/01 13:49:01;;;;;;;10.30;3.70;;;;;;;;;;5052266;28;20021;-69
2022/05/01 13:51:28;;;;;;;6.18;3.10;;;;;;;;;;5051780;28;20042;-69
2022/05/01 13:53:53;;;;;;;6.10;2.80;;;;;;;;;;5052012;28;20370;-68
2022/05/01 13:56:19;;;;;;;10.55;3.90;;;;;;;;;;5051519;28;20562;-69
2022/05/01 13:58:45;;;;;;;5.72;3.67;;;;;;;;;;5051687;28;20029;-70
2022/05/01 14:01:11;;;;;;;6.57;3.90;;;;;;;;;;5051707;28;20032;-69
2022/05/01 14:03:37;;;;;;;7.38;3.60;;;;;;;;;;5051965;28;20023;-69
2022/05/01 14:06:03;;;;;;;7.35;3.60;;;;;;;;;;5051483;28;20056;-69
2022/05/01 14:08:29;;;;;;;7.35;3.78;;;;;;;;;;5051788;28;20013;-69
2022/05/01 14:10:55;;;;;;;6.97;3.92;;;;;;;;;;5051596;28;20029;-69
2022/05/01 14:13:20;;;;;;;6.65;3.90;;;;;;;;;;5051598;28;20028;-69
2022/05/01 14:15:46;;;;;;;7.88;3.75;;;;;;;;;;5051006;28;20025;-69
2022/05/01 14:18:14;;;;;;;7.63;4.35;;;;;;;;;;5051553;28;20461;-69
2022/05/01 14:20:40;;;;;;;9.48;4.60;;;;;;;;;;5051462;28;20049;-69
2022/05/01 14:23:06;;;;;;;8.98;4.70;;;;;;;;;;5051452;28;20102;-69
2022/05/01 14:25:32;;;;;;;8.32;4.38;;;;;;;;;;5051083;28;20040;-69
2022/05/01 14:27:57;;;;;;;10.75;4.75;;;;;;;;;;5051649;28;20024;-69
2022/05/01 14:30:23;;;;;;;7.32;4.75;;;;;;;;;;5050757;28;20489;-69
2022/05/01 14:32:52;;;;;;;8.43;4.22;;;;;;;;;;5051282;28;20025;-69
2022/05/01 14:35:20;;;;;;;6.78;4.10;;;;;;;;;;5050855;28;20035;-70
2022/05/01 14:38:14;;;;;;;6.10;3.80;;;;;;;;;;5051215;28;20033;-69
2022/05/01 14:40:43;;;;;;;7.45;4.10;;;;;;;;;;5050856;28;20087;-69
2022/05/01 14:43:14;;;;;;;7.60;3.90;;;;;;;;;;5051250;28;20025;-69
2022/05/01 14:45:48;;;;;;;7.00;4.38;;;;;;;;;;5050479;28;20418;-70
2022/05/01 14:48:28;;;;;;;5.65;3.97;;;;;;;;;;5050842;28;20503;-69
2022/05/01 14:50:56;;;;;;;7.47;4.55;;;;;;;;;;5050750;28;20025;-69
2022/05/01 14:53:23;;;;;;;10.13;4.47;;;;;;;;;;5050982;28;20041;-71
2022/05/01 14:55:50;;;;;;;10.52;4.63;;;;;;;;;;5050551;28;20100;-70
2022/05/01 15:06:32;;;;;;;13.02;5.80;;;;;;;;;;5050338;28;20091;-69
2022/05/01 15:09:03;;;;;;;11.07;4.70;;;;;;;;;;5050634;28;20044;-70
2022/05/01 15:11:29;;;;;;;8.15;5.50;;;;;;;;;;5050620;28;20024;-69
2022/05/01 15:13:56;;;;;;;10.35;4.82;;;;;;;;;;5050365;28;20032;-69
2022/05/01 15:16:38;;;;;;;7.20;4.63;;;;;;;;;;5050385;28;20048;-69
2022/05/01 15:19:54;;;;;;;10.48;4.40;;;;;;;;;;5050367;28;20025;-70
2022/05/01 15:22:44;;;;;;;10.05;4.30;;;;;;;;;;5027039;28;20068;-69
2022/05/01 15:25:19;;;;;;;8.30;4.60;;;;;;;;;;5050606;28;20025;-69
2022/05/01 15:28:04;;;;;;;8.10;4.63;;;;;;;;;;5050000;28;20119;-70
2022/05/01 15:30:31;;;;;;;5.88;4.40;;;;;;;;;;5050126;28;20013;-70
2022/05/01 15:35:45;;;;;;;7.90;4.88;;;;;;;;;;5050454;28;20108;-69
2022/05/01 15:38:26;;;;;;;8.27;5.28;;;;;;;;;;5049842;28;20107;-69
2022/05/01 15:40:56;;;;;;;8.18;4.43;;;;;;;;;;5049574;28;20197;-70
2022/05/01 15:43:22;;;;;;;;;;;;;;;;;;5050635;28;20079;-70